KMDH Weather | Aviation | SIU

Home
Southern Illinois University

CONTACT

SIU.EDU

Aviation - Weather

College of Applied Sciences and Arts

KMDH Weather

NOTICE: Although all weather products are taken from the National Weather Service, this data should be used only as a supplement to a formal weather briefing.

Last Updated: Tuesday, October 16th, 2018, 9:08 am
Information on this page is updated every 5 minutes.


METARS

KMDH 161352Z 36003KT 10SM CLR 06/04 A3035 RMK AO2 SLP279 T00560039

KMDH 161252Z 00000KT 8SM CLR 04/04 A3034 RMK AO2 SLP276 T00440039

KMDH 161152Z 00000KT 10SM CLR 03/03 A3035 RMK AO2 SLP279 T00330028 10050 20028

KMWA 161345Z 02005KT 20SM BKN120 05/03 A3035

KMWA 161245Z 00000KT 20SM BKN120 03/03 A3034

KMWA 161145Z 35004KT 10SM BKN120 03/03 A3035

KMWA 161135Z AUTO 00000KT 7SM CLR 03/03 A3035 RMK AO2 T00280025

KMWA 161115Z AUTO 00000KT 10SM CLR 04/03 A3034 RMK AO2 T00350030

KCGI 161353Z 01004KT 10SM CLR 07/03 A3033 RMK AO2 SLP272 T00670033

KCGI 161253Z 33003KT 10SM CLR 06/03 A3034 RMK AO2 SLP274 T00560033

KCGI 161153Z 00000KT 10SM CLR 04/03 A3034 RMK AO2 SLP274 70001 T00440028 10061

KSAR 161335Z AUTO 00000KT 10SM CLR 04/04 A3036 RMK AO2 T00400035

KSAR 161315Z AUTO 00000KT 10SM CLR 04/03 A3035 RMK AO2 T00370033

KSAR 161255Z AUTO 00000KT 10SM CLR 04/03 A3035 RMK AO2 T00350033

KSAR 161235Z AUTO 00000KT 10SM CLR 03/03 A3034 RMK AO2 T00340028

KSAR 161215Z AUTO 00000KT 10SM CLR 03/03 A3034 RMK AO2 T00300030

KSAR 161155Z AUTO 00000KT 10SM CLR 03/03 A3035 RMK AO2 T00320031 10040 20028

KSAR 161135Z AUTO 00000KT 10SM CLR 03/03 A3035 RMK AO2 T00320032

KSAR 161115Z AUTO 34004KT 10SM CLR 03/03 A3034 RMK AO2 T00310031

KFAM 161256Z AUTO 00000KT 10SM CLR 03/02 A3034 RMK AO2 SLP277 T00280022

KFAM 161156Z AUTO 00000KT 10SM CLR 03/02 A3033 RMK AO2 SLP276 T00280022 10033

KMVN 161356Z AUTO 00000KT 10SM CLR 04/03 A3036 RMK AO2 SLP283 T00440033

KMVN 161256Z AUTO 00000KT 10SM CLR 03/03 A3034 RMK AO2 SLP276 T00280028

KMVN 161156Z AUTO 00000KT 7SM CLR 02/02 A3033 RMK AO2 SLP274 T00170017 10033

KHSB 161355Z AUTO 36003KT 10SM CLR 06/04 A3034 RMK AO2 T00550040

KHSB 161335Z AUTO 35004KT 10SM CLR 05/04 A3035 RMK AO2 T00480040

KHSB 161315Z AUTO 00000KT 10SM CLR 04/04 A3034 RMK AO2 T00430041

KCIR 161355Z AUTO 01005KT 10SM CLR 06/04 A3033 RMK AO2 T00630035

KCIR 161335Z AUTO 36003KT 10SM CLR 06/04 A3033 RMK AO2 T00580039

KCIR 161315Z AUTO 36003KT 10SM CLR 06/04 A3033 RMK AO2 T00550039

KPAH 161353Z 03005KT 10SM FEW090 07/03 A3031 RMK AO2 SLP267 T00720033

KBLV 161356Z AUTO 17003KT 10SM CLR 04/03 A3033 RMK AO2 SLP277 T00410026 $

KSUS 161351Z 25004KT 7SM BKN003 04/03 A3034 RMK AO2

KSUS 161338Z 25004KT 7SM SCT002 03/03 A3034 RMK AO2 T00330028

KSUS 161334Z 24003KT 7SM BKN001 03/03 A3035 RMK AO2 T00280028

KSUS 161322Z 27003KT 6SM BR SCT001 02/02 A3035 RMK AO2 T00220022

KSUS 161317Z 27004KT 2SM R08R/5000VP6000FT BR BKN001 02/02 A3034 RMK AO2

KSUS 161314Z 26003KT 1/2SM R08R/1600VP6000FT FG VV001 02/02 A3035 RMK AO2

KVIH 161353Z AUTO 22005KT 10SM CLR 03/01 A3034 RMK AO2 SLP281 T00330011

KENL 161355Z AUTO 00000KT 10SM CLR 05/04 A3035 RMK AO2 T00450043

KENL 161335Z AUTO 00000KT 10SM CLR 04/04 A3034 RMK AO2 T00370037

KENL 161315Z AUTO 00000KT 7SM CLR 04/04 A3033 RMK AO2 T00350035

KMTO 161353Z AUTO 28005KT 10SM CLR 04/01 A3030 RMK AO2 SLP265 T00440006

KFWC 161355Z AUTO 00000KT 10SM CLR 05/03 A3034 RMK AO1 T00500030

KFWC 161335Z AUTO 00000KT 10SM CLR 05/03 A3033 RMK AO1 T00450032

KFWC 161315Z AUTO 00000KT 10SM CLR 04/03 A3033 RMK AO1 T00380025

KCUL 161351Z AUTO 00000KT 10SM CLR 06/04 A3034 RMK AO2

KCUL 161332Z AUTO 00000KT 10SM CLR 04/04 A3034 RMK AO2

KEVV 161354Z 02003KT 10SM CLR 06/03 A3033 RMK AO2 SLP273 T00610033

KHOP 161356Z AUTO 03006KT 10SM FEW190 07/06 A3029 RMK AO2 SLP261 T00740055

KBYH 161351Z 02008KT 10SM BKN090 BKN150 OVC250 08/05 A3031

KARG 161356Z AUTO 02007KT 10SM BKN070 07/04 A3035 RMK AO2 SLP280 T00720039

KJBR 161353Z AUTO 02007KT 10SM SCT055 08/04 A3033 RMK AO2 SLP269 T00830044

KALN 161352Z VRB04KT 10SM FEW130 BKN200 04/04 A3034

KALN 161352Z VRB04KT 10SM FEW130 BKN200 04/04 A3034

KCOU 161354Z 19005KT 10SM CLR 01/00 A3034 RMK AO2 SLP280 T00110000

KAJG 161335Z AUTO 00000KT 10SM CLR 04/04 A3034 RMK AO2 T00410035

KAJG 161315Z AUTO 00000KT 10SM CLR 03/03 A3033 RMK AO2 T00320028

KM30 161355Z AUTO 01004KT 10SM CLR 06/04 A3034 RMK AO2 T00630037

KM30 161335Z AUTO 36003KT 10SM CLR 06/04 A3034 RMK AO2 T00580037

KM30 161315Z AUTO 36003KT 10SM CLR 05/04 A3033 RMK AO2 T00540037

KDEC 161354Z 24005KT 10SM CLR 04/00 A3030 RMK AO2 SLP267 T00390000

KIJX 161335Z AUTO 22007KT 10SM CLR 02/00 A3030 RMK AO2 T00210001

KIJX 161315Z AUTO 22005KT 10SM CLR 01/00 A3032 RMK AO2 T00130000


TAFS

KEVV 161120Z 1612/1712 02003KT P6SM BKN200

        FM161700 26006KT P6SM SCT100 BKN250

        FM170000 23003KT P6SM SCT250


Winds Aloft



Pilot Reports

No pilot reports found for area.



Area Forecast



Significant Weather

WAUS43 KKCI 160845 CHIT WA 160845 AIRMET TANGO UPDT 2 FOR TURB AND LLWS VALID UNTIL 161500 AIRMET TURB...KS MO IL IN KY OK TX AR TN LA MS AL FROM 40SW ROD TO 40SW HNN TO 30S LOZ TO 60SSE DYR TO 40NE MLU TO 20NNW CWK TO 20NNE DLF TO 50S MAF TO 70ESE GCK TO 50ESE SLN TO 30WNW COU TO 40SW ROD MOD TURB BTN 150 AND FL270. CONDS CONTG BYD 15Z THRU 21Z. OTLK VALID 1500-2100Z AREA 1...TURB KS MO IL IN KY OK TX AR TN MS AL BOUNDED BY 20ENE BVT-20S FWA-CVG-HNN-30WSW PSK-20SE VXV-40WNW MSL-20S MEM-30E JCT-40WNW SJT-30WNW CDS-AMA-30SSW SLN-20ENE BVT MOD TURB BTN 150 AND FL270. CONDS CONTG THRU 21Z. AREA 2...TURB MN WI LM LS MI LH IL IN BOUNDED BY 20NW YQT-SSM-YVV-30SE ECK-20SSE DXO-20ESE BDF-RHI-70N RHI-20NW YQT MOD TURB BLW 100. CONDS CONTG THRU 21Z.
WAUS44 KKCI 160845 DFWT WA 160845 AIRMET TANGO UPDT 1 FOR TURB VALID UNTIL 161500 AIRMET TURB...OK TX AR TN LA MS AL KS MO IL IN KY FROM 40SW ROD TO 40SW HNN TO 30S LOZ TO 60SSE DYR TO 40NE MLU TO 20NNW CWK TO 20NNE DLF TO 50S MAF TO 70ESE GCK TO 50ESE SLN TO 30WNW COU TO 40SW ROD MOD TURB BTN 150 AND FL270. CONDS CONTG BYD 15Z THRU 21Z. OTLK VALID 1500-2100Z...TURB OK TX AR TN MS AL KS MO IL IN KY BOUNDED BY 20ENE BVT-20S FWA-CVG-HNN-30WSW PSK-20SE VXV-40WNW MSL-20S MEM-30E JCT-40WNW SJT-30WNW CDS-AMA-30SSW SLN-20ENE BVT MOD TURB BTN 150 AND FL270. CONDS CONTG THRU 21Z.